METAR AND TAF INFORMATION
METAR FOR EKVG
ADDS - METARS form results

(1600 UTC 14 August 2022)
Data provider http://aviationweather.gov/metar/data/
 
METAR text: EKVG 141550Z AUTO 21006KT 9999 OVC028/// 12/10 Q1010 RMK OVC027/// WIND SKEID 18005KT 150V220
Conditions at: EKVG (SORVAAG/VAGAR , DK) observed 1550 UTC 14 August 2022
Temperature: 12.0°C (54°F)
Dewpoint: 10.0°C (50°F) [RH = 88%]
Pressure (altimeter): 29.82 inches Hg (1010.0 mb)
Winds: from the SSW (210 degrees) at 7 MPH (6 knots; 3.1 m/s)
Visibility: 6 or more miles (10+ km)
Ceiling: 2800 feet AGL
Clouds: overcast cloud deck at 2800 feet AGL
Weather: no significant weather observed at this time

METAR text: EKVG 141520Z AUTO 21006KT 9999 FEW011/// OVC029/// 13/10 Q1010 RMK OVC028/// WIND SKEID 19005KT
Conditions at: EKVG (SORVAAG/VAGAR , DK) observed 1520 UTC 14 August 2022
Temperature: 13.0°C (55°F)
Dewpoint: 10.0°C (50°F) [RH = 82%]
Pressure (altimeter): 29.82 inches Hg (1010.0 mb)
Winds: from the SSW (210 degrees) at 7 MPH (6 knots; 3.1 m/s)
Visibility: 6 or more miles (10+ km)
Ceiling: 2900 feet AGL
Clouds: few clouds at 1100 feet AGL
overcast cloud deck at 2900 feet AGL
Weather: no significant weather observed at this time

Forecast for: AMD
Text: TAF AMD EKVG 141527Z 1416/1501 22010KT 9999 BKN015 OVC025
Forecast period: 1600 to 2300 UTC 14 August 2022
Forecast type: FROM: standard forecast or significant change
Winds: from the SW (220 degrees) at 12 MPH (10 knots; 5.1 m/s)
Visibility: 6 or more miles (10+ km)
Ceiling: 1500 feet AGL
Clouds: broken clouds at 1500 feet AGL
overcast cloud deck at 2500 feet AGL
Weather: no significant weather forecast for this period
Text: TEMPO 1416/1423 4000 -DZ BR OVC008
Forecast period: 1600 to 2300 UTC 14 August 2022
Forecast type: TEMPORARY: The following changes expected for less than half the time period
Visibility: 2.49 miles (4.01 km)
Ceiling: 800 feet AGL
Clouds: overcast cloud deck at 800 feet AGL
Weather: -DZ BR  (light drizzle, mist)
Text: BECMG 1423/1501 30007KT 1500 DZ BR OVC003
Forecast period: 2300 UTC 14 August 2022 to 0100 UTC 15 August 2022
Forecast type: BECOMING: Conditions expected to become as follows by 0100 UTC 15 August 2022
Winds: from the WNW (300 degrees) at 8 MPH (7 knots; 3.6 m/s)
Visibility: 0.93 miles (1.50 km)
Ceiling: 300 feet AGL
Clouds: overcast cloud deck at 300 feet AGL
Weather: DZ BR  (moderate drizzle, mist)

 AIRPORT MAP

 RUNWAY INFORMATION
Runway 13 Runway length 5902 ft Runway width 98 ft
Runway elevation 268 ft Runway displaced threshold 0 ft Runway heading 118
Runway 31 Runway length 5902 ft Runway width 98 ft
Runway elevation 252 ft Runway displaced threshold 0 ft Runway heading 298

 AIRPORT FREQUENCIES
Type AFIS Name AFIS Frequency 124.85 MHZ

 AIRPORT NEAR NAVIGATION AIDS
Type NDB Name Myggenes Frequency 337 KHZ
Type NDB Name Nolso Frequency 404 KHZ
Type NDB Name Vagar Frequency 348 KHZ

-